createdAt,value
2022-08-26T00:01:01.316Z,99753.81
2022-08-26T00:03:28.425Z,99757.81
2022-08-26T00:05:55.621Z,99759.66
2022-08-26T00:08:22.458Z,99763.09
2022-08-26T00:10:49.283Z,99753.91
2022-08-26T00:13:16.559Z,99754.97
2022-08-26T00:15:47.096Z,99760.25
2022-08-26T00:18:21.867Z,99756.81
2022-08-26T00:20:50.081Z,99754.97
2022-08-26T00:23:17.807Z,99749.69
2022-08-26T00:25:44.680Z,99748.91
2022-08-26T00:28:12.897Z,99742.03
2022-08-26T00:30:40.843Z,99736.75
2022-08-26T00:33:08.496Z,99747.91
2022-08-26T00:35:36.146Z,99740.81
2022-08-26T00:38:04.769Z,99742.97
2022-08-26T00:40:34.894Z,99737.47
2022-08-26T00:43:02.829Z,99732.75
2022-08-26T00:45:38.022Z,99739.59
2022-08-26T00:48:06.074Z,99733.25
2022-08-26T00:50:35.873Z,99726.41
2022-08-26T00:53:04.585Z,99731.41
2022-08-26T00:55:40.870Z,99725.09
2022-08-26T00:58:08.466Z,99738.31
2022-08-26T01:00:35.750Z,99725.88
2022-08-26T01:03:03.279Z,99725.09
2022-08-26T01:05:32.673Z,99720.59
2022-08-26T01:07:59.726Z,99721.38
2022-08-26T01:10:29.061Z,99718.22
2022-08-26T01:12:58.247Z,99721.97
2022-08-26T01:15:32.764Z,99720.59
2022-08-26T01:18:00.212Z,99719.03
2022-08-26T01:20:46.150Z,99730.38
2022-08-26T01:23:13.649Z,99730.44
2022-08-26T01:25:50.767Z,99729.44
2022-08-26T01:28:21.849Z,99727.88
2022-08-26T01:30:49.467Z,99730.00
2022-08-26T01:33:18.096Z,99725.78
2022-08-26T01:35:45.251Z,99725.78
2022-08-26T01:38:12.834Z,99733.22
2022-08-26T01:40:43.951Z,99723.25
2022-08-26T01:43:14.786Z,99731.41
2022-08-26T01:45:42.286Z,99728.09
2022-08-26T01:48:13.431Z,99731.28
2022-08-26T01:50:40.431Z,99727.09
2022-08-26T01:53:09.453Z,99733.41
2022-08-26T01:55:39.370Z,99724.47
2022-08-26T01:58:10.136Z,99733.00
2022-08-26T02:00:38.987Z,99736.16
2022-08-26T02:03:21.499Z,99731.44
2022-08-26T02:05:53.090Z,99731.22
2022-08-26T02:08:25.519Z,99733.94
2022-08-26T02:10:54.767Z,99731.94
2022-08-26T02:13:23.114Z,99739.28
2022-08-26T02:15:52.275Z,99731.16
2022-08-26T02:18:19.497Z,99725.41
2022-08-26T02:20:46.300Z,99730.69
2022-08-26T02:23:13.031Z,99732.91
2022-08-26T02:25:40.032Z,99735.56
2022-08-26T02:28:07.589Z,99729.75
2022-08-26T02:30:35.176Z,99735.03
2022-08-26T02:33:03.874Z,99733.44
2022-08-26T02:35:32.116Z,99729.50
2022-08-26T02:37:59.019Z,99732.66
2022-08-26T02:40:29.289Z,99730.28
2022-08-26T02:42:57.108Z,99729.88
2022-08-26T02:45:24.709Z,99726.66
2022-08-26T02:47:52.442Z,99718.06
2022-08-26T02:50:19.758Z,99720.97
2022-08-26T02:52:48.425Z,99726.53
2022-08-26T02:55:15.919Z,99724.41
2022-08-26T02:57:42.725Z,99722.84
2022-08-26T03:00:11.129Z,99725.47
2022-08-26T03:02:38.334Z,99715.22
2022-08-26T03:05:05.426Z,99723.13
2022-08-26T03:07:32.219Z,99714.69
2022-08-26T03:09:59.595Z,99714.22
2022-08-26T03:12:26.550Z,99715.03
2022-08-26T03:14:53.473Z,99714.22
2022-08-26T03:17:21.209Z,99708.97
2022-08-26T03:19:51.736Z,99714.22
2022-08-26T03:22:21.616Z,99705.25
2022-08-26T03:24:49.623Z,99710.00
2022-08-26T03:27:16.594Z,99712.94
2022-08-26T03:30:03.078Z,99714.53
2022-08-26T03:32:30.790Z,99712.66
2022-08-26T03:34:57.990Z,99720.06
2022-08-26T03:37:25.136Z,99722.72
2022-08-26T03:39:52.728Z,99715.84
2022-08-26T03:42:21.564Z,99714.78
2022-08-26T03:44:48.920Z,99711.09
2022-08-26T03:47:15.920Z,99710.00
2022-08-26T03:49:43.135Z,99706.88
2022-08-26T03:52:10.516Z,99716.66
2022-08-26T03:54:37.785Z,99720.34
2022-08-26T03:57:04.919Z,99723.78
2022-08-26T03:59:32.398Z,99732.78
2022-08-26T04:01:59.312Z,99721.72
2022-08-26T04:04:26.450Z,99721.44
2022-08-26T04:06:56.581Z,99714.59
2022-08-26T04:09:23.358Z,99713.00
2022-08-26T04:11:52.232Z,99722.22
2022-08-26T04:14:21.118Z,99727.75
2022-08-26T04:16:48.286Z,99719.88
2022-08-26T04:19:16.113Z,99718.00
2022-08-26T04:21:45.096Z,99725.34
2022-08-26T04:24:15.758Z,99727.97
2022-08-26T04:26:43.888Z,99722.13
2022-08-26T04:29:18.937Z,99726.84
2022-08-26T04:31:48.160Z,99731.31
2022-08-26T04:34:15.851Z,99720.19
2022-08-26T04:36:43.185Z,99727.84
2022-08-26T04:39:16.971Z,99720.97
2022-08-26T04:41:47.907Z,99727.75
2022-08-26T04:44:16.490Z,99726.91
2022-08-26T04:46:44.268Z,99722.38
2022-08-26T04:49:11.625Z,99722.63
2022-08-26T04:51:39.136Z,99726.50
2022-08-26T04:54:07.249Z,99726.66
2022-08-26T04:56:39.054Z,99725.75
2022-08-26T04:59:08.336Z,99726.75
2022-08-26T05:01:49.270Z,99724.56
2022-08-26T05:04:18.791Z,99731.63
2022-08-26T05:06:47.135Z,99724.44
2022-08-26T05:09:14.533Z,99725.94
2022-08-26T05:11:42.632Z,99727.38
2022-08-26T05:14:10.104Z,99726.16
2022-08-26T05:16:37.767Z,99727.13
2022-08-26T05:19:07.456Z,99729.91
2022-08-26T05:21:36.213Z,99725.25
2022-08-26T05:24:04.728Z,99728.25
2022-08-26T05:27:37.740Z,99730.50
2022-08-26T05:30:06.581Z,99733.47
2022-08-26T05:32:33.401Z,99725.16
2022-08-26T05:35:00.233Z,99724.47
2022-08-26T05:37:27.870Z,99728.69
2022-08-26T05:39:55.196Z,99725.69
2022-08-26T05:42:23.605Z,99728.63
2022-08-26T05:44:56.076Z,99727.25
2022-08-26T05:47:23.735Z,99728.03
2022-08-26T05:49:51.596Z,99726.63
2022-08-26T05:52:19.154Z,99719.50
2022-08-26T05:54:45.993Z,99721.38
2022-08-26T05:57:15.011Z,99721.41
2022-08-26T05:59:42.255Z,99726.03
2022-08-26T06:02:09.889Z,99723.13
2022-08-26T06:04:37.104Z,99717.16
2022-08-26T06:07:03.988Z,99726.63
2022-08-26T06:09:32.387Z,99723.88
2022-08-26T06:12:01.909Z,99723.97
2022-08-26T06:14:29.073Z,99729.78
2022-08-26T06:17:00.861Z,99730.66
2022-08-26T06:19:32.698Z,99730.78
2022-08-26T06:22:23.457Z,99728.81
2022-08-26T06:25:09.935Z,99732.44
2022-08-26T06:27:38.115Z,99735.31
2022-08-26T06:30:05.757Z,99734.78
2022-08-26T06:32:33.183Z,99730.31
2022-08-26T06:35:00.337Z,99726.00
2022-08-26T06:37:30.519Z,99723.94
2022-08-26T06:39:57.589Z,99726.00
2022-08-26T06:42:24.939Z,99723.09
2022-08-26T06:44:51.856Z,99731.13
2022-08-26T06:47:18.655Z,99732.00
2022-08-26T06:49:45.782Z,99727.16
2022-08-26T06:52:12.751Z,99733.28
2022-08-26T06:54:43.250Z,99736.53
2022-08-26T06:57:11.629Z,99731.75
2022-08-26T06:59:38.564Z,99729.13
2022-08-26T07:02:06.263Z,99730.69
2022-08-26T07:04:35.897Z,99731.44
2022-08-26T07:07:04.109Z,99733.81
2022-08-26T07:09:33.259Z,99736.41
2022-08-26T07:12:01.964Z,99731.94
2022-08-26T07:14:31.810Z,99736.50
2022-08-26T07:17:00.371Z,99737.22
2022-08-26T07:19:30.014Z,99727.59
2022-08-26T07:21:59.404Z,99729.88
2022-08-26T07:24:28.496Z,99732.41
2022-08-26T07:27:06.406Z,99734.78
2022-08-26T07:29:33.781Z,99735.75
2022-08-26T07:32:01.210Z,99731.59
2022-08-26T07:34:28.147Z,99730.38
2022-08-26T07:36:56.256Z,99727.22
2022-08-26T07:39:23.683Z,99715.53
2022-08-26T07:41:51.051Z,99723.06
2022-08-26T07:44:18.011Z,99723.16
2022-08-26T07:46:53.285Z,99728.28
2022-08-26T07:49:21.635Z,99728.03
2022-08-26T07:51:49.875Z,99732.72
2022-08-26T07:54:17.005Z,99723.47
2022-08-26T07:56:44.695Z,99727.31
2022-08-26T07:59:13.850Z,99716.34
2022-08-26T08:01:45.100Z,99714.97
2022-08-26T08:04:16.334Z,99720.25
2022-08-26T08:06:44.164Z,99720.72
2022-08-26T08:09:11.614Z,99717.38
2022-08-26T08:11:38.963Z,99721.19
2022-08-26T08:14:08.525Z,99713.69
2022-08-26T08:16:41.521Z,99721.63
2022-08-26T08:19:13.545Z,99710.13
2022-08-26T08:21:42.240Z,99711.00
2022-08-26T08:24:10.870Z,99711.97
2022-08-26T08:26:37.847Z,99708.28
2022-08-26T08:29:06.255Z,99707.25
2022-08-26T08:34:21.889Z,99710.50
2022-08-26T08:36:48.994Z,99703.50
2022-08-26T08:39:16.909Z,99706.59
2022-08-26T08:41:51.469Z,99695.59
2022-08-26T08:44:20.372Z,99703.84
2022-08-26T08:46:51.310Z,99696.78
2022-08-26T08:49:18.605Z,99700.19
2022-08-26T08:51:48.311Z,99705.00
2022-08-26T08:54:15.555Z,99710.34
2022-08-26T08:56:47.180Z,99707.91
2022-08-26T08:59:19.350Z,99703.25
2022-08-26T09:02:05.692Z,99697.91
2022-08-26T09:04:52.296Z,99706.94
2022-08-26T09:07:25.354Z,99697.78
2022-08-26T09:09:57.255Z,99704.06
2022-08-26T09:12:29.345Z,99694.69
2022-08-26T09:15:02.474Z,99694.16
2022-08-26T09:17:49.736Z,99691.97
2022-08-26T09:20:25.842Z,99695.25
2022-08-26T09:22:52.827Z,99694.41
2022-08-26T09:25:20.143Z,99691.19
2022-08-26T09:27:50.551Z,99692.75
2022-08-26T09:30:33.060Z,99693.75
2022-08-26T09:33:01.564Z,99689.41
2022-08-26T09:35:33.196Z,99681.44
2022-08-26T09:38:00.523Z,99696.09
2022-08-26T09:40:34.861Z,99681.22
2022-08-26T09:43:11.856Z,99680.09
2022-08-26T09:45:40.652Z,99679.97
2022-08-26T09:48:44.281Z,99676.69
2022-08-26T09:51:22.981Z,99681.19
2022-08-26T09:53:51.924Z,99676.13
2022-08-26T09:56:27.587Z,99680.69
2022-08-26T09:58:55.976Z,99681.03
2022-08-26T10:01:23.127Z,99673.88
2022-08-26T10:03:51.510Z,99667.56
2022-08-26T10:06:20.940Z,99663.72
2022-08-26T10:08:59.092Z,99672.63
2022-08-26T10:11:30.580Z,99673.50
2022-08-26T10:14:07.667Z,99667.88
2022-08-26T10:16:42.060Z,99670.75
2022-08-26T10:19:11.676Z,99656.38
2022-08-26T10:21:54.779Z,99658.63
2022-08-26T10:24:28.349Z,99658.19
2022-08-26T10:27:06.011Z,99657.34
2022-08-26T10:29:44.237Z,99653.84
2022-08-26T10:32:17.055Z,99655.25
2022-08-26T10:34:46.990Z,99652.22
2022-08-26T10:37:18.310Z,99646.94
2022-08-26T10:39:51.883Z,99645.38
2022-08-26T10:42:27.457Z,99654.41
2022-08-26T10:45:02.395Z,99638.13
2022-08-26T10:47:45.585Z,99649.00
2022-08-26T10:50:12.775Z,99646.63
2022-08-26T10:52:40.037Z,99645.75
2022-08-26T10:55:16.858Z,99643.34
2022-08-26T10:57:48.556Z,99645.22
2022-08-26T11:00:39.657Z,99640.13
2022-08-26T11:03:22.701Z,99634.75
2022-08-26T11:06:08.343Z,99626.41
2022-08-26T11:08:45.109Z,99630.25
2022-08-26T11:11:12.021Z,99635.69
2022-08-26T11:13:59.361Z,99629.25
2022-08-26T11:16:33.943Z,99616.94
2022-08-26T11:19:02.010Z,99622.22
2022-08-26T11:21:43.818Z,99621.66
2022-08-26T11:24:30.385Z,99615.53
2022-08-26T11:26:58.492Z,99610.94
2022-08-26T11:30:01.288Z,99606.03
2022-08-26T11:32:34.319Z,99600.03
2022-08-26T11:35:06.317Z,99601.88
2022-08-26T11:37:41.572Z,99596.41
2022-08-26T11:40:13.353Z,99587.94
2022-08-26T11:42:42.722Z,99594.44
2022-08-26T11:45:22.423Z,99582.63
2022-08-26T11:47:50.836Z,99588.72
2022-08-26T11:50:20.404Z,99585.66
2022-08-26T11:52:54.653Z,99573.38
2022-08-26T11:55:23.292Z,99574.09
2022-08-26T11:57:51.670Z,99577.03
2022-08-26T12:00:22.319Z,99569.63
2022-08-26T12:02:50.292Z,99571.97
2022-08-26T12:05:42.658Z,99571.25
2022-08-26T12:08:12.742Z,99565.53
2022-08-26T12:10:40.221Z,99560.19
2022-08-26T12:13:07.652Z,99562.84
2022-08-26T12:15:35.671Z,99560.19
2022-08-26T12:18:20.559Z,99551.34
2022-08-26T12:20:57.960Z,99551.75
2022-08-26T12:23:27.145Z,99549.78
2022-08-26T12:26:02.228Z,99551.72
2022-08-26T12:28:30.671Z,99549.84
2022-08-26T12:31:05.242Z,99547.28
2022-08-26T12:33:38.524Z,99544.34
2022-08-26T12:36:06.113Z,99546.22
2022-08-26T12:38:37.102Z,99541.94
2022-08-26T12:41:03.972Z,99528.88
2022-08-26T12:43:37.067Z,99531.09
2022-08-26T12:46:06.707Z,99538.00
2022-08-26T12:48:36.124Z,99521.94
2022-08-26T12:51:07.497Z,99525.00
2022-08-26T12:53:40.827Z,99524.72
2022-08-26T12:56:19.402Z,99516.75
2022-08-26T12:58:59.855Z,99520.41
2022-08-26T13:01:27.291Z,99512.81
2022-08-26T13:03:56.441Z,99516.28
2022-08-26T13:06:24.463Z,99513.22
2022-08-26T13:08:53.181Z,99508.72
2022-08-26T13:11:20.621Z,99516.22
2022-08-26T13:13:54.032Z,99507.44
2022-08-26T13:16:22.851Z,99505.25
2022-08-26T13:18:52.733Z,99503.75
2022-08-26T13:21:21.594Z,99489.28
2022-08-26T13:23:50.757Z,99503.19
2022-08-26T13:26:17.733Z,99497.00
2022-08-26T13:28:44.574Z,99490.53
2022-08-26T13:31:15.590Z,99491.75
2022-08-26T13:33:45.400Z,99494.78
2022-08-26T13:36:15.516Z,99491.75
2022-08-26T13:38:42.502Z,99487.22
2022-08-26T13:41:29.352Z,99482.28
2022-08-26T13:43:56.766Z,99483.84
2022-08-26T13:46:26.361Z,99474.31
2022-08-26T13:48:54.665Z,99473.97
2022-08-26T13:51:22.818Z,99459.75
2022-08-26T13:53:50.267Z,99461.28
2022-08-26T13:56:19.130Z,99468.22
2022-08-26T13:58:47.586Z,99460.53
2022-08-26T14:01:17.091Z,99455.91
2022-08-26T14:03:46.984Z,99456.72
2022-08-26T14:06:14.209Z,99452.88
2022-08-26T14:08:41.862Z,99450.25
2022-08-26T14:11:09.984Z,99446.81
2022-08-26T14:13:37.487Z,99443.75
2022-08-26T14:16:08.800Z,99447.63
2022-08-26T14:18:41.631Z,99458.31
2022-08-26T14:21:12.745Z,99459.75
2022-08-26T14:23:41.293Z,99467.44
2022-08-26T14:26:11.984Z,99466.66
2022-08-26T14:28:46.903Z,99469.31
2022-08-26T14:31:13.831Z,99468.91
2022-08-26T14:33:41.934Z,99457.34
2022-08-26T14:36:27.880Z,99463.81
2022-08-26T14:38:56.964Z,99468.34
2022-08-26T14:41:25.449Z,99471.69
2022-08-26T14:43:57.890Z,99466.16
2022-08-26T14:46:28.840Z,99471.63
2022-08-26T14:49:01.744Z,99469.31
2022-08-26T14:51:31.005Z,99473.66
2022-08-26T14:54:16.625Z,99459.91
2022-08-26T14:56:46.146Z,99464.63
2022-08-26T14:59:14.034Z,99459.38
2022-08-26T15:01:42.909Z,99466.38
2022-08-26T15:04:11.948Z,99463.00
2022-08-26T15:06:42.534Z,99460.72
2022-08-26T15:09:09.471Z,99456.88
2022-08-26T15:11:37.148Z,99455.34
2022-08-26T15:14:04.659Z,99451.81
2022-08-26T15:16:32.140Z,99457.47
2022-08-26T15:19:00.698Z,99448.16
2022-08-26T15:21:27.727Z,99446.88
2022-08-26T15:23:55.049Z,99436.47
2022-08-26T15:26:22.542Z,99432.56
2022-08-26T15:28:50.428Z,99424.00
2022-08-26T15:31:17.733Z,99431.63
2022-08-26T15:33:45.814Z,99418.13
2022-08-26T15:36:14.586Z,99427.19
2022-08-26T15:38:42.601Z,99424.72
2022-08-26T15:41:12.088Z,99426.44
2022-08-26T15:43:38.998Z,99413.28
2022-08-26T15:46:13.256Z,99429.31
2022-08-26T15:48:40.492Z,99423.88
2022-08-26T15:51:19.170Z,99424.25
2022-08-26T15:53:47.609Z,99426.47
2022-08-26T15:56:15.223Z,99420.78
2022-08-26T15:58:42.562Z,99415.28
2022-08-26T16:01:12.159Z,99419.84
2022-08-26T16:03:39.041Z,99418.28
2022-08-26T16:06:07.065Z,99412.19
2022-08-26T16:08:36.653Z,99408.41
2022-08-26T16:11:04.276Z,99411.88
2022-08-26T16:13:33.924Z,99406.19
2022-08-26T16:16:07.822Z,99406.22
2022-08-26T16:18:34.687Z,99403.97
2022-08-26T16:21:13.470Z,99403.25
2022-08-26T16:23:45.104Z,99399.41
2022-08-26T16:26:20.747Z,99390.97
2022-08-26T16:28:50.643Z,99398.19
2022-08-26T16:31:25.321Z,99386.94
2022-08-26T16:34:00.677Z,99398.44
2022-08-26T16:36:28.504Z,99394.59
2022-08-26T16:38:56.620Z,99387.28
2022-08-26T16:41:25.055Z,99388.19
2022-08-26T16:43:54.896Z,99399.28
2022-08-26T16:46:23.856Z,99397.34
2022-08-26T16:48:52.544Z,99395.78
2022-08-26T16:51:23.101Z,99398.84
2022-08-26T16:53:50.427Z,99396.50
2022-08-26T16:56:19.473Z,99389.94
2022-08-26T16:58:50.846Z,99391.81
2022-08-26T17:01:18.073Z,99388.69
2022-08-26T17:03:45.425Z,99382.84
2022-08-26T17:06:13.057Z,99380.13
2022-08-26T17:08:41.089Z,99376.97
2022-08-26T17:11:08.574Z,99386.06
2022-08-26T17:13:36.389Z,99381.03
2022-08-26T17:16:07.642Z,99370.59
2022-08-26T17:18:35.583Z,99375.53
2022-08-26T17:21:07.064Z,99367.00
2022-08-26T17:23:34.589Z,99378.03
2022-08-26T17:26:01.629Z,99380.13
2022-08-26T17:28:28.903Z,99376.56
2022-08-26T17:30:56.645Z,99381.00
2022-08-26T17:33:24.790Z,99379.69
2022-08-26T17:35:53.166Z,99371.06
2022-08-26T17:38:21.345Z,99373.53
2022-08-26T17:40:53.116Z,99375.22
2022-08-26T17:43:20.164Z,99379.91
2022-08-26T17:45:47.419Z,99387.00
2022-08-26T17:48:14.938Z,99383.28
2022-08-26T17:50:43.063Z,99386.84
2022-08-26T17:53:18.877Z,99391.59
2022-08-26T17:55:47.451Z,99385.22
2022-08-26T17:58:15.845Z,99399.53
2022-08-26T18:00:44.930Z,99391.31
2022-08-26T18:03:11.833Z,99394.59
2022-08-26T18:05:38.824Z,99398.19
2022-08-26T18:08:06.489Z,99398.00
2022-08-26T18:10:33.343Z,99406.94
2022-08-26T18:13:01.987Z,99416.31
2022-08-26T18:15:29.305Z,99422.34
2022-08-26T18:17:56.122Z,99414.16
2022-08-26T18:20:24.375Z,99422.38
2022-08-26T18:22:53.212Z,99415.53
2022-08-26T18:25:20.460Z,99425.00
2022-08-26T18:27:47.481Z,99427.34
2022-08-26T18:30:17.413Z,99423.34
2022-08-26T18:32:44.314Z,99428.94
2022-08-26T18:35:11.944Z,99427.16
2022-08-26T18:37:39.816Z,99425.19
2022-08-26T18:40:08.156Z,99424.94
2022-08-26T18:42:35.175Z,99419.09
2022-08-26T18:45:02.673Z,99428.09
2022-08-26T18:47:31.209Z,99425.63
2022-08-26T18:49:58.043Z,99430.09
2022-08-26T18:52:25.239Z,99428.41
2022-08-26T18:54:52.275Z,99430.09
2022-08-26T18:57:21.821Z,99426.53
2022-08-26T18:59:49.205Z,99425.59
2022-08-26T19:02:16.226Z,99428.94
2022-08-26T19:04:43.638Z,99429.19
2022-08-26T19:07:10.836Z,99431.84
2022-08-26T19:09:37.672Z,99436.75
2022-08-26T19:12:04.866Z,99442.72
2022-08-26T19:14:32.626Z,99450.25
2022-08-26T19:17:00.546Z,99444.81
2022-08-26T19:19:27.527Z,99442.50
2022-08-26T19:21:55.427Z,99446.22
2022-08-26T19:24:23.293Z,99440.00
2022-08-26T19:26:58.899Z,99439.56
2022-08-26T19:29:32.148Z,99442.13
2022-08-26T19:31:59.766Z,99445.09
2022-08-26T19:34:26.901Z,99449.53
2022-08-26T19:36:54.756Z,99446.44
2022-08-26T19:39:21.932Z,99454.28
2022-08-26T19:41:48.832Z,99455.28
2022-08-26T19:44:37.274Z,99449.50
2022-08-26T19:47:05.462Z,99461.59
2022-08-26T19:49:32.626Z,99464.44
2022-08-26T19:51:59.625Z,99473.09
2022-08-26T19:54:27.231Z,99476.88
2022-08-26T19:56:54.665Z,99486.28
2022-08-26T19:59:21.529Z,99482.53
2022-08-26T20:02:00.370Z,99472.72
2022-08-26T20:04:29.343Z,99478.72
2022-08-26T20:06:57.811Z,99484.53
2022-08-26T20:09:27.345Z,99495.50
2022-08-26T20:11:56.802Z,99493.69
2022-08-26T20:14:25.216Z,99488.44
2022-08-26T20:16:52.139Z,99492.06
2022-08-26T20:19:38.911Z,99494.06
2022-08-26T20:22:07.872Z,99498.72
2022-08-26T20:24:35.657Z,99498.91
2022-08-26T20:27:07.287Z,99500.78
2022-08-26T20:29:35.642Z,99507.72
2022-08-26T20:32:02.752Z,99509.25
2022-08-26T20:34:30.256Z,99508.06
2022-08-26T20:36:58.072Z,99509.50
2022-08-26T20:39:28.898Z,99508.09
2022-08-26T20:41:56.954Z,99506.72
2022-08-26T20:44:24.460Z,99512.41
2022-08-26T20:46:51.484Z,99514.75
2022-08-26T20:49:18.781Z,99508.06
2022-08-26T20:51:47.916Z,99512.44
2022-08-26T20:54:15.461Z,99509.19
2022-08-26T20:56:42.459Z,99514.31
2022-08-26T20:59:09.751Z,99511.84
2022-08-26T21:01:42.093Z,99506.53
2022-08-26T21:04:11.523Z,99505.13
2022-08-26T21:06:38.710Z,99512.78
2022-08-26T21:09:07.202Z,99507.97
2022-08-26T21:11:34.829Z,99499.53
2022-08-26T21:14:07.032Z,99507.00
2022-08-26T21:16:44.055Z,99501.22
2022-08-26T21:19:12.346Z,99505.63
2022-08-26T21:21:39.451Z,99504.06
2022-08-26T21:24:06.848Z,99493.44
2022-08-26T21:26:33.987Z,99496.75
2022-08-26T21:29:01.560Z,99499.41
2022-08-26T21:31:29.850Z,99482.94
2022-08-26T21:33:56.754Z,99484.38
2022-08-26T21:36:23.622Z,99487.38
2022-08-26T21:38:50.826Z,99486.88
2022-08-26T21:41:20.330Z,99478.47
2022-08-26T21:43:47.784Z,99486.44
2022-08-26T21:46:16.962Z,99483.91
2022-08-26T21:48:48.824Z,99486.56
2022-08-26T21:51:19.034Z,99487.03
2022-08-26T21:53:46.023Z,99486.56
2022-08-26T21:56:14.511Z,99485.66
2022-08-26T21:58:41.664Z,99479.84
2022-08-26T22:01:10.351Z,99479.69
2022-08-26T22:03:46.716Z,99476.91
2022-08-26T22:06:19.027Z,99485.19
2022-08-26T22:08:45.910Z,99484.41
2022-08-26T22:11:13.612Z,99486.59
2022-08-26T22:13:41.297Z,99486.59
2022-08-26T22:16:08.497Z,99487.66
2022-08-26T22:18:36.685Z,99486.59
2022-08-26T22:21:05.958Z,99482.84
2022-08-26T22:23:33.094Z,99491.88
2022-08-26T22:26:00.247Z,99484.69
2022-08-26T22:28:28.276Z,99483.94
2022-08-26T22:30:55.766Z,99482.84
2022-08-26T22:33:23.050Z,99481.56
2022-08-26T22:35:51.312Z,99472.03
2022-08-26T22:38:18.319Z,99469.72
2022-08-26T22:40:47.510Z,99466.59
2022-08-26T22:43:15.108Z,99458.00
2022-08-26T22:45:45.922Z,99461.00
2022-08-26T22:48:15.543Z,99459.28
2022-08-26T22:50:43.366Z,99472.06
2022-08-26T22:53:10.419Z,99463.94
2022-08-26T22:55:37.578Z,99466.13
2022-08-26T22:58:05.256Z,99464.88
2022-08-26T23:00:32.607Z,99463.00
2022-08-26T23:03:00.114Z,99468.75
2022-08-26T23:05:27.496Z,99468.13
2022-08-26T23:07:56.304Z,99458.47
2022-08-26T23:10:23.931Z,99459.72
2022-08-26T23:12:52.523Z,99448.81
2022-08-26T23:15:20.409Z,99445.81
2022-08-26T23:17:47.607Z,99442.88
2022-08-26T23:20:24.158Z,99446.16
2022-08-26T23:22:51.026Z,99450.69
2022-08-26T23:25:17.933Z,99454.75
2022-08-26T23:27:45.416Z,99456.28
2022-08-26T23:30:14.492Z,99442.56
2022-08-26T23:32:41.355Z,99457.41
2022-08-26T23:35:09.752Z,99454.75
2022-08-26T23:37:41.816Z,99467.53
2022-08-26T23:40:10.971Z,99470.78
2022-08-26T23:42:38.506Z,99473.00
2022-08-26T23:45:06.746Z,99467.69
2022-08-26T23:47:34.360Z,99467.34
2022-08-26T23:50:01.331Z,99470.78
2022-08-26T23:52:47.011Z,99470.00
2022-08-26T23:55:14.558Z,99474.84
2022-08-26T23:57:41.813Z,99473.28
